createdAt,value
2018-12-27T00:00:36.135Z,5.7
2018-12-27T00:01:37.841Z,5.6
2018-12-27T00:02:39.586Z,5.6
2018-12-27T00:03:41.174Z,5.5
2018-12-27T00:04:42.619Z,5.6
2018-12-27T00:05:44.259Z,5.7
2018-12-27T00:06:45.765Z,5.7
2018-12-27T00:07:47.485Z,5.8
2018-12-27T00:08:49.260Z,5.7
2018-12-27T00:09:50.858Z,5.7
2018-12-27T00:10:52.560Z,5.7
2018-12-27T00:11:54.224Z,5.7
2018-12-27T00:12:55.945Z,5.6
2018-12-27T00:13:57.403Z,5.6
2018-12-27T00:14:58.806Z,5.7
2018-12-27T00:16:00.556Z,5.6
2018-12-27T00:17:01.946Z,5.6
2018-12-27T00:18:03.567Z,5.7
2018-12-27T00:19:05.276Z,5.6
2018-12-27T00:20:06.909Z,5.6
2018-12-27T00:21:08.331Z,5.6
2018-12-27T00:22:09.725Z,5.6
2018-12-27T00:23:11.117Z,5.6
2018-12-27T00:24:12.524Z,5.6
2018-12-27T00:25:13.930Z,5.6
2018-12-27T00:26:15.371Z,5.6
2018-12-27T00:27:16.788Z,5.6
2018-12-27T00:28:18.168Z,5.7
2018-12-27T00:29:19.604Z,5.7
2018-12-27T00:30:21.222Z,5.5
2018-12-27T00:31:22.899Z,5.5
2018-12-27T00:32:24.302Z,5.5
2018-12-27T00:33:25.691Z,5.4
2018-12-27T00:34:27.123Z,5.4
2018-12-27T00:35:28.551Z,5.4
2018-12-27T00:36:29.969Z,5.5
2018-12-27T00:37:31.372Z,5.5
2018-12-27T00:38:32.768Z,5.5
2018-12-27T00:39:34.283Z,5.5
2018-12-27T00:40:36.044Z,5.5
2018-12-27T00:41:37.469Z,5.5
2018-12-27T00:42:38.857Z,5.5
2018-12-27T00:43:40.280Z,5.5
2018-12-27T00:44:41.696Z,5.4
2018-12-27T00:45:43.117Z,5.5
2018-12-27T00:46:44.552Z,5.5
2018-12-27T00:47:45.988Z,5.5
2018-12-27T00:48:47.413Z,5.5
2018-12-27T00:49:48.837Z,5.5
2018-12-27T00:50:50.243Z,5.5
2018-12-27T00:51:51.629Z,5.5
2018-12-27T00:52:53.035Z,5.5
2018-12-27T00:53:54.431Z,5.5
2018-12-27T00:54:55.824Z,5.4
2018-12-27T00:55:57.206Z,5.4
2018-12-27T00:56:58.622Z,5.4
2018-12-27T00:58:00.028Z,5.4
2018-12-27T00:59:01.455Z,5.4
2018-12-27T01:00:02.849Z,5.3
2018-12-27T01:01:04.263Z,5.4
2018-12-27T01:02:05.664Z,5.4
2018-12-27T01:03:11.103Z,5.4
2018-12-27T01:04:08.459Z,5.4
2018-12-27T01:05:09.853Z,5.4
2018-12-27T01:06:11.260Z,5.4
2018-12-27T01:07:13.098Z,5.2
2018-12-27T01:08:14.615Z,5.2
2018-12-27T01:09:16.059Z,5.1
2018-12-27T01:10:17.481Z,5.2
2018-12-27T01:11:18.912Z,5.2
2018-12-27T01:12:20.383Z,5.2
2018-12-27T01:13:21.800Z,5.3
2018-12-27T01:14:23.191Z,5.2
2018-12-27T01:15:24.590Z,5.3
2018-12-27T01:16:25.963Z,5.4
2018-12-27T01:17:27.353Z,5.3
2018-12-27T01:18:28.709Z,5.4
2018-12-27T01:19:30.079Z,5.4
2018-12-27T01:20:31.462Z,5.4
2018-12-27T01:21:32.876Z,5.5
2018-12-27T01:22:34.228Z,5.5
2018-12-27T01:23:35.610Z,5.5
2018-12-27T01:24:36.979Z,5.6
2018-12-27T01:25:38.341Z,5.6
2018-12-27T01:26:39.705Z,5.6
2018-12-27T01:27:41.067Z,5.6
2018-12-27T01:28:42.429Z,5.6
2018-12-27T01:29:43.800Z,5.6
2018-12-27T01:30:45.165Z,5.6
2018-12-27T01:31:50.553Z,5.6
2018-12-27T01:32:47.851Z,5.5
2018-12-27T01:33:49.215Z,5.6
2018-12-27T01:34:50.584Z,5.5
2018-12-27T01:35:51.948Z,5.6
2018-12-27T01:36:53.325Z,5.5
2018-12-27T01:37:54.688Z,5.6
2018-12-27T01:38:56.047Z,5.6
2018-12-27T01:39:57.412Z,5.6
2018-12-27T01:40:58.776Z,5.5
2018-12-27T01:42:00.142Z,5.5
2018-12-27T01:43:01.503Z,5.6
2018-12-27T01:44:02.867Z,5.5
2018-12-27T01:45:04.290Z,5.5
2018-12-27T01:46:05.653Z,5.6
2018-12-27T01:47:07.013Z,5.5
2018-12-27T01:48:08.376Z,5.5
2018-12-27T01:49:09.741Z,5.6
2018-12-27T01:50:12.230Z,5.6
2018-12-27T01:51:12.428Z,5.7
2018-12-27T01:52:13.784Z,5.6
2018-12-27T01:53:15.152Z,5.6
2018-12-27T01:54:16.514Z,5.7
2018-12-27T01:55:17.878Z,5.6
2018-12-27T01:56:19.240Z,5.6
2018-12-27T01:57:20.600Z,5.6
2018-12-27T01:58:21.960Z,5.6
2018-12-27T01:59:23.315Z,5.6
2018-12-27T02:00:24.681Z,5.6
2018-12-27T02:01:26.044Z,5.5
2018-12-27T02:02:27.408Z,5.6
2018-12-27T02:03:28.773Z,5.7
2018-12-27T02:04:30.136Z,5.6
2018-12-27T02:05:31.492Z,5.6
2018-12-27T02:06:32.855Z,5.6
2018-12-27T02:07:34.214Z,5.6
2018-12-27T02:08:35.581Z,5.6
2018-12-27T02:09:36.944Z,5.6
2018-12-27T02:10:38.310Z,5.5
2018-12-27T02:11:39.669Z,5.6
2018-12-27T02:12:41.029Z,5.6
2018-12-27T02:13:42.389Z,5.6
2018-12-27T02:14:43.761Z,5.6
2018-12-27T02:15:45.124Z,5.5
2018-12-27T02:16:46.487Z,5.6
2018-12-27T02:17:47.848Z,5.5
2018-12-27T02:18:49.211Z,5.5
2018-12-27T02:19:50.575Z,5.5
2018-12-27T02:20:51.936Z,5.6
2018-12-27T02:21:53.301Z,5.6
2018-12-27T02:22:54.663Z,5.5
2018-12-27T02:23:56.022Z,5.6
2018-12-27T02:24:57.425Z,5.6
2018-12-27T02:25:58.784Z,5.6
2018-12-27T02:27:00.145Z,5.5
2018-12-27T02:28:01.511Z,5.6
2018-12-27T02:29:02.873Z,5.6
2018-12-27T02:30:04.238Z,5.5
2018-12-27T02:31:05.601Z,5.6
2018-12-27T02:32:06.964Z,5.6
2018-12-27T02:33:08.325Z,5.6
2018-12-27T02:34:09.698Z,5.6
2018-12-27T02:35:11.136Z,5.6
2018-12-27T02:36:12.563Z,5.6
2018-12-27T02:37:13.976Z,5.5
2018-12-27T02:38:15.334Z,5.6
2018-12-27T02:39:16.704Z,5.5
2018-12-27T02:40:18.070Z,5.5
2018-12-27T02:41:19.431Z,5.5
2018-12-27T02:42:20.794Z,5.5
2018-12-27T02:43:22.157Z,5.6
2018-12-27T02:44:23.518Z,5.5
2018-12-27T02:45:24.879Z,5.5
2018-12-27T02:46:26.432Z,5.6
2018-12-27T02:47:27.920Z,5.6
2018-12-27T02:48:29.336Z,5.5
2018-12-27T02:49:30.741Z,5.5
2018-12-27T02:50:32.133Z,5.5
2018-12-27T02:51:33.538Z,5.4
2018-12-27T02:52:34.926Z,5.4
2018-12-27T02:53:36.360Z,5.3
2018-12-27T02:54:37.755Z,5.3
2018-12-27T02:55:39.148Z,5.2
2018-12-27T02:56:40.577Z,5.2
2018-12-27T02:57:41.959Z,5.2
2018-12-27T02:58:43.368Z,5.3
2018-12-27T02:59:44.880Z,5.2
2018-12-27T03:00:46.285Z,5.3
2018-12-27T03:01:47.647Z,5.3
2018-12-27T03:02:49.030Z,5.3
2018-12-27T03:03:50.399Z,5.2
2018-12-27T03:04:51.758Z,5.3
2018-12-27T03:05:53.115Z,5.3
2018-12-27T03:06:54.506Z,5.3
2018-12-27T03:07:55.870Z,5.3
2018-12-27T03:08:57.245Z,5.2
2018-12-27T03:09:58.604Z,5.3
2018-12-27T03:10:59.969Z,5.2
2018-12-27T03:12:01.337Z,5.2
2018-12-27T03:13:02.696Z,5.2
2018-12-27T03:14:04.061Z,5.2
2018-12-27T03:15:05.437Z,5.2
2018-12-27T03:16:06.804Z,5.1
2018-12-27T03:17:08.163Z,5.1
2018-12-27T03:18:09.528Z,5.2
2018-12-27T03:19:10.890Z,5.2
2018-12-27T03:20:12.262Z,5.1
2018-12-27T03:21:13.627Z,5.1
2018-12-27T03:22:14.997Z,5.1
2018-12-27T03:23:16.364Z,5.1
2018-12-27T03:24:17.727Z,5.1
2018-12-27T03:25:19.089Z,5.1
2018-12-27T03:26:20.451Z,5.1
2018-12-27T03:27:21.817Z,5.1
2018-12-27T03:28:23.186Z,5.2
2018-12-27T03:29:24.552Z,5.1
2018-12-27T03:30:25.910Z,5.1
2018-12-27T03:31:27.286Z,5.0
2018-12-27T03:32:28.642Z,5.1
2018-12-27T03:33:30.007Z,4.9
2018-12-27T03:34:31.759Z,5.1
2018-12-27T03:35:33.152Z,5.0
2018-12-27T03:36:34.543Z,5.2
2018-12-27T03:37:35.939Z,5.1
2018-12-27T03:38:37.325Z,5.1
2018-12-27T03:39:38.755Z,5.1
2018-12-27T03:40:40.170Z,5.0
2018-12-27T03:41:41.569Z,5.0
2018-12-27T03:42:42.984Z,5.0
2018-12-27T03:43:44.409Z,5.0
2018-12-27T03:44:45.818Z,5.0
2018-12-27T03:45:47.214Z,5.1
2018-12-27T03:46:48.598Z,4.9
2018-12-27T03:47:50.058Z,5.1
2018-12-27T03:48:51.608Z,5.0
2018-12-27T03:49:53.477Z,5.0
2018-12-27T03:50:55.291Z,5.0
2018-12-27T03:51:56.737Z,5.0
2018-12-27T03:52:58.138Z,5.1
2018-12-27T03:53:59.572Z,5.1
2018-12-27T03:55:00.974Z,5.2
2018-12-27T03:56:02.385Z,5.1
2018-12-27T03:57:03.788Z,5.2
2018-12-27T03:58:05.204Z,5.1
2018-12-27T03:59:06.616Z,5.2
2018-12-27T04:00:08.016Z,5.3
2018-12-27T04:01:09.443Z,5.3
2018-12-27T04:02:10.869Z,5.3
2018-12-27T04:03:12.287Z,5.2
2018-12-27T04:04:13.694Z,5.3
2018-12-27T04:05:15.100Z,5.2
2018-12-27T04:06:16.487Z,5.2
2018-12-27T04:07:17.901Z,5.3
2018-12-27T04:08:19.283Z,5.2
2018-12-27T04:09:21.021Z,5.2
2018-12-27T04:10:22.812Z,5.2
2018-12-27T04:11:24.214Z,5.2
2018-12-27T04:12:25.629Z,5.2
2018-12-27T04:13:27.504Z,5.1
2018-12-27T04:14:28.941Z,5.0
2018-12-27T04:15:30.323Z,5.0
2018-12-27T04:16:31.766Z,5.0
2018-12-27T04:17:33.177Z,5.0
2018-12-27T04:18:34.575Z,4.9
2018-12-27T04:19:36.219Z,5.0
2018-12-27T04:20:37.616Z,4.9
2018-12-27T04:21:39.021Z,4.9
2018-12-27T04:22:40.453Z,4.9
2018-12-27T04:23:41.860Z,4.8
2018-12-27T04:24:43.307Z,4.8
2018-12-27T04:25:44.679Z,4.8
2018-12-27T04:26:46.140Z,4.8
2018-12-27T04:27:47.546Z,4.7
2018-12-27T04:28:48.974Z,4.7
2018-12-27T04:29:50.372Z,4.7
2018-12-27T04:30:51.766Z,4.6
2018-12-27T04:31:53.152Z,4.6
2018-12-27T04:32:54.560Z,4.5
2018-12-27T04:33:55.978Z,4.4
2018-12-27T04:34:57.392Z,4.4
2018-12-27T04:35:58.834Z,4.4
2018-12-27T04:37:00.190Z,4.4
2018-12-27T04:38:01.601Z,4.4
2018-12-27T04:39:03.000Z,4.3
2018-12-27T04:40:04.404Z,4.3
2018-12-27T04:41:05.749Z,4.3
2018-12-27T04:42:07.202Z,4.3
2018-12-27T04:43:08.629Z,4.3
2018-12-27T04:44:10.001Z,4.2
2018-12-27T04:45:11.402Z,4.2
2018-12-27T04:46:12.797Z,4.1
2018-12-27T04:47:14.192Z,4.1
2018-12-27T04:48:15.611Z,4.0
2018-12-27T04:49:17.019Z,4.0
2018-12-27T04:50:18.434Z,3.9
2018-12-27T04:51:19.842Z,3.9
2018-12-27T04:52:21.229Z,3.9
2018-12-27T04:53:22.627Z,3.9
2018-12-27T04:54:24.024Z,3.8
2018-12-27T04:55:25.454Z,3.8
2018-12-27T04:56:26.849Z,3.7
2018-12-27T04:57:28.250Z,3.7
2018-12-27T04:58:29.671Z,3.6
2018-12-27T04:59:31.083Z,3.7
2018-12-27T05:00:32.518Z,3.7
2018-12-27T05:01:33.899Z,3.5
2018-12-27T05:02:35.300Z,3.5
2018-12-27T05:03:36.742Z,3.6
2018-12-27T05:04:38.128Z,3.5
2018-12-27T05:05:39.541Z,3.4
2018-12-27T05:06:40.955Z,3.4
2018-12-27T05:07:42.362Z,3.5
2018-12-27T05:08:43.764Z,3.4
2018-12-27T05:09:45.147Z,3.4
2018-12-27T05:10:46.571Z,3.4
2018-12-27T05:11:47.975Z,3.3
2018-12-27T05:12:49.377Z,3.4
2018-12-27T05:13:50.803Z,3.3
2018-12-27T05:14:52.195Z,3.4
2018-12-27T05:15:53.620Z,3.3
2018-12-27T05:16:55.011Z,3.4
2018-12-27T05:17:56.375Z,3.4
2018-12-27T05:18:57.743Z,3.4
2018-12-27T05:19:59.096Z,3.5
2018-12-27T05:21:00.461Z,3.5
2018-12-27T05:22:01.821Z,3.5
2018-12-27T05:23:03.209Z,3.4
2018-12-27T05:24:04.549Z,3.4
2018-12-27T05:25:05.906Z,3.4
2018-12-27T05:26:07.265Z,3.5
2018-12-27T05:27:08.633Z,3.4
2018-12-27T05:28:09.997Z,3.5
2018-12-27T05:29:11.362Z,3.4
2018-12-27T05:30:12.719Z,3.5
2018-12-27T05:31:14.077Z,3.4
2018-12-27T05:32:15.440Z,3.4
2018-12-27T05:33:16.798Z,3.4
2018-12-27T05:34:25.867Z,3.4
2018-12-27T05:35:19.484Z,3.4
2018-12-27T05:36:20.851Z,3.4
2018-12-27T05:37:22.211Z,3.4
2018-12-27T05:38:23.574Z,3.4
2018-12-27T05:39:24.923Z,3.5
2018-12-27T05:40:26.292Z,3.4
2018-12-27T05:41:27.656Z,3.4
2018-12-27T05:42:29.009Z,3.4
2018-12-27T05:43:30.384Z,3.4
2018-12-27T05:44:31.740Z,3.4
2018-12-27T05:45:33.104Z,3.2
2018-12-27T05:46:34.465Z,3.2
2018-12-27T05:47:35.824Z,3.3
2018-12-27T05:48:37.183Z,3.2
2018-12-27T05:49:38.884Z,3.2
2018-12-27T05:50:39.870Z,3.2
2018-12-27T05:51:41.235Z,3.2
2018-12-27T05:52:42.601Z,3.3
2018-12-27T05:53:43.960Z,3.3
2018-12-27T05:54:46.685Z,3.2
2018-12-27T05:55:46.646Z,3.2
2018-12-27T05:56:48.018Z,3.2
2018-12-27T05:57:49.368Z,3.2
2018-12-27T05:58:50.736Z,3.2
2018-12-27T05:59:52.093Z,3.1
2018-12-27T06:00:53.453Z,3.2
2018-12-27T06:01:54.814Z,3.1
2018-12-27T06:02:56.174Z,3.1
2018-12-27T06:03:57.535Z,3.1
2018-12-27T06:04:58.892Z,3.1
2018-12-27T06:06:00.262Z,3.1
2018-12-27T06:07:01.636Z,3.1
2018-12-27T06:08:03.002Z,3.1
2018-12-27T06:09:04.362Z,3.1
2018-12-27T06:10:05.720Z,3.1
2018-12-27T06:11:07.088Z,3.1
2018-12-27T06:12:08.448Z,3.1
2018-12-27T06:13:09.812Z,3.1
2018-12-27T06:14:11.178Z,3.1
2018-12-27T06:15:12.532Z,3.2
2018-12-27T06:16:13.896Z,3.2
2018-12-27T06:17:15.255Z,3.2
2018-12-27T06:18:16.623Z,3.3
2018-12-27T06:19:17.984Z,3.3
2018-12-27T06:20:19.342Z,3.2
2018-12-27T06:21:20.703Z,3.1
2018-12-27T06:22:22.064Z,3.2
2018-12-27T06:23:23.425Z,3.2
2018-12-27T06:24:24.872Z,3.2
2018-12-27T06:25:26.491Z,3.2
2018-12-27T06:26:27.890Z,3.1
2018-12-27T06:27:29.327Z,3.2
2018-12-27T06:28:30.709Z,3.1
2018-12-27T06:29:32.121Z,3.1
2018-12-27T06:30:33.519Z,3.1
2018-12-27T06:31:34.936Z,3.1
2018-12-27T06:32:36.328Z,3.0
2018-12-27T06:33:37.740Z,3.1
2018-12-27T06:34:41.472Z,3.2
2018-12-27T06:35:40.425Z,3.1
2018-12-27T06:36:41.784Z,3.1
2018-12-27T06:37:43.143Z,3.2
2018-12-27T06:38:44.521Z,3.3
2018-12-27T06:39:45.888Z,3.2
2018-12-27T06:40:47.249Z,3.2
2018-12-27T06:41:48.624Z,3.2
2018-12-27T06:42:50.001Z,3.2
2018-12-27T06:43:51.399Z,3.3
2018-12-27T06:44:52.793Z,3.3
2018-12-27T06:45:54.172Z,3.2
2018-12-27T06:46:55.579Z,3.2
2018-12-27T06:47:56.980Z,3.2
2018-12-27T06:49:00.090Z,3.3
2018-12-27T06:49:59.755Z,3.2
2018-12-27T06:51:01.170Z,3.3
2018-12-27T06:52:02.575Z,3.3
2018-12-27T06:53:03.987Z,3.4
2018-12-27T06:54:05.390Z,3.4
2018-12-27T06:55:06.793Z,3.4
2018-12-27T06:56:08.184Z,3.4
2018-12-27T06:57:09.571Z,3.4
2018-12-27T06:58:10.963Z,3.5
2018-12-27T06:59:12.365Z,3.5
2018-12-27T07:00:13.791Z,3.4
2018-12-27T07:01:15.197Z,3.5
2018-12-27T07:02:16.602Z,3.4
2018-12-27T07:03:17.999Z,3.4
2018-12-27T07:04:19.395Z,3.4
2018-12-27T07:05:20.780Z,3.4
2018-12-27T07:06:22.179Z,3.4
2018-12-27T07:07:23.587Z,3.4
2018-12-27T07:08:25.020Z,3.5
2018-12-27T07:09:26.416Z,3.5
2018-12-27T07:10:28.031Z,3.6
2018-12-27T07:11:29.430Z,3.5
2018-12-27T07:12:30.873Z,3.7
2018-12-27T07:13:32.452Z,3.7
2018-12-27T07:14:33.983Z,3.7
2018-12-27T07:15:35.393Z,3.7
2018-12-27T07:16:36.803Z,3.7
2018-12-27T07:17:38.184Z,3.8
2018-12-27T07:18:39.591Z,4.0
2018-12-27T07:19:41.056Z,3.8
2018-12-27T07:20:42.453Z,3.8
2018-12-27T07:21:43.864Z,3.9
2018-12-27T07:22:45.283Z,3.9
2018-12-27T07:23:46.674Z,3.9
2018-12-27T07:24:48.205Z,4.0
2018-12-27T07:25:49.601Z,4.0
2018-12-27T07:26:51.007Z,4.0
2018-12-27T07:27:52.416Z,4.1
2018-12-27T07:28:53.879Z,4.0
2018-12-27T07:29:55.281Z,4.0
2018-12-27T07:30:56.705Z,4.0
2018-12-27T07:31:58.118Z,4.0
2018-12-27T07:32:59.559Z,4.0
2018-12-27T07:34:00.959Z,4.1
2018-12-27T07:35:02.359Z,4.0
2018-12-27T07:36:03.782Z,4.0
2018-12-27T07:37:05.173Z,4.0
2018-12-27T07:38:06.613Z,4.0
2018-12-27T07:39:08.022Z,4.0
2018-12-27T07:40:09.438Z,4.0
2018-12-27T07:41:10.831Z,4.2
2018-12-27T07:42:12.220Z,4.2
2018-12-27T07:43:13.635Z,4.0
2018-12-27T07:44:15.048Z,4.1
2018-12-27T07:45:16.454Z,4.1
2018-12-27T07:46:17.860Z,4.1
2018-12-27T07:47:19.270Z,4.2
2018-12-27T07:48:20.706Z,4.2
2018-12-27T07:49:22.129Z,4.2
2018-12-27T07:50:23.550Z,4.2
2018-12-27T07:51:24.943Z,4.3
2018-12-27T07:52:26.368Z,4.2
2018-12-27T07:53:27.765Z,4.3
2018-12-27T07:54:29.180Z,4.3
2018-12-27T07:55:30.607Z,4.3
2018-12-27T07:56:32.006Z,4.4
2018-12-27T07:57:33.423Z,4.5
2018-12-27T07:58:34.857Z,4.6
2018-12-27T07:59:36.303Z,4.7
2018-12-27T08:00:37.743Z,4.8
2018-12-27T08:01:39.142Z,4.8
2018-12-27T08:02:40.534Z,4.9
2018-12-27T08:03:41.960Z,4.9
2018-12-27T08:04:43.351Z,4.9
2018-12-27T08:05:44.757Z,5.1
2018-12-27T08:06:46.137Z,5.2
2018-12-27T08:07:47.500Z,5.3
2018-12-27T08:08:48.872Z,5.4
2018-12-27T08:09:50.308Z,5.6
2018-12-27T08:10:51.602Z,5.5
2018-12-27T08:11:52.967Z,5.7
2018-12-27T08:12:54.336Z,5.7
2018-12-27T08:13:55.701Z,5.7
2018-12-27T08:14:57.067Z,5.8
2018-12-27T08:15:58.435Z,5.7
2018-12-27T08:16:59.802Z,5.8
2018-12-27T08:18:01.172Z,5.8
2018-12-27T08:19:02.536Z,5.7
2018-12-27T08:20:03.904Z,5.7
2018-12-27T08:21:05.275Z,5.7
2018-12-27T08:22:06.643Z,5.6
2018-12-27T08:23:08.011Z,5.7
2018-12-27T08:24:09.389Z,5.7
2018-12-27T08:25:10.743Z,5.7
2018-12-27T08:26:12.107Z,5.7
2018-12-27T08:27:13.477Z,5.8
2018-12-27T08:28:14.844Z,5.8
2018-12-27T08:29:16.220Z,5.8
2018-12-27T08:30:17.593Z,5.8
2018-12-27T08:31:18.959Z,5.9
2018-12-27T08:32:20.368Z,5.8
2018-12-27T08:33:21.730Z,5.9
2018-12-27T08:34:23.099Z,5.9
2018-12-27T08:35:24.460Z,5.9
2018-12-27T08:36:25.834Z,5.8
2018-12-27T08:37:27.200Z,5.9
2018-12-27T08:38:28.568Z,6.0
2018-12-27T08:39:29.934Z,5.9
2018-12-27T08:40:31.300Z,6.0
2018-12-27T08:41:32.674Z,6.0
2018-12-27T08:42:34.038Z,6.0
2018-12-27T08:43:35.399Z,5.9
2018-12-27T08:44:36.775Z,5.8
2018-12-27T08:45:38.148Z,5.8
2018-12-27T08:46:39.513Z,5.7
2018-12-27T08:47:40.882Z,5.7
2018-12-27T08:48:42.251Z,5.8
2018-12-27T08:49:43.714Z,5.8
2018-12-27T08:50:45.084Z,5.7
2018-12-27T08:51:46.541Z,5.8
2018-12-27T08:52:47.939Z,5.8
2018-12-27T08:53:49.306Z,5.8
2018-12-27T08:54:50.673Z,5.8
2018-12-27T08:55:52.102Z,5.9
2018-12-27T08:56:53.431Z,5.9
2018-12-27T08:57:54.783Z,6.0
2018-12-27T08:58:56.152Z,6.0
2018-12-27T08:59:57.521Z,6.0
2018-12-27T09:00:58.886Z,6.1
2018-12-27T09:02:00.248Z,6.1
2018-12-27T09:03:01.620Z,6.2
2018-12-27T09:04:02.990Z,6.3
2018-12-27T09:05:04.365Z,6.2
2018-12-27T09:06:05.766Z,6.3
2018-12-27T09:07:07.134Z,6.4
2018-12-27T09:08:08.550Z,6.3
2018-12-27T09:09:09.916Z,6.3
2018-12-27T09:10:11.286Z,6.4
2018-12-27T09:11:12.655Z,6.3
2018-12-27T09:12:14.021Z,6.4
2018-12-27T09:13:15.394Z,6.5
2018-12-27T09:14:16.760Z,6.4
2018-12-27T09:15:18.128Z,6.5
2018-12-27T09:16:19.498Z,6.5
2018-12-27T09:17:20.864Z,6.5
2018-12-27T09:18:22.570Z,6.5
2018-12-27T09:19:23.563Z,6.6
2018-12-27T09:20:24.931Z,6.7
2018-12-27T09:21:26.293Z,6.7
2018-12-27T09:22:27.667Z,6.8
2018-12-27T09:23:29.037Z,6.8
2018-12-27T09:24:30.405Z,6.8
2018-12-27T09:25:31.766Z,6.8
2018-12-27T09:26:33.140Z,6.9
2018-12-27T09:27:34.509Z,7.0
2018-12-27T09:28:35.873Z,7.1
2018-12-27T09:29:37.242Z,7.1
2018-12-27T09:30:38.609Z,7.3
2018-12-27T09:31:39.982Z,7.2
2018-12-27T09:32:41.348Z,7.4
2018-12-27T09:33:42.724Z,7.3
2018-12-27T09:34:44.095Z,7.3
2018-12-27T09:35:45.461Z,7.4
2018-12-27T09:36:46.885Z,7.6
2018-12-27T09:37:48.297Z,7.6
2018-12-27T09:38:50.012Z,7.7
2018-12-27T09:39:51.693Z,7.8
2018-12-27T09:40:53.365Z,7.9
2018-12-27T09:41:55.090Z,8.0
2018-12-27T09:42:56.795Z,8.1
2018-12-27T09:43:58.390Z,8.3
2018-12-27T09:44:59.780Z,8.4
2018-12-27T09:46:01.193Z,8.5
2018-12-27T09:47:02.617Z,8.6
2018-12-27T09:48:04.047Z,8.8
2018-12-27T09:49:05.444Z,9.1
2018-12-27T09:50:06.864Z,9.2
2018-12-27T09:51:08.278Z,9.4
2018-12-27T09:52:09.712Z,9.4
2018-12-27T09:53:11.175Z,9.6
2018-12-27T09:54:12.559Z,9.8
2018-12-27T09:55:13.977Z,9.8
2018-12-27T09:56:15.413Z,10.0
2018-12-27T09:57:16.839Z,10.0
2018-12-27T09:58:18.240Z,10.0
2018-12-27T09:59:19.650Z,10.1
2018-12-27T10:00:21.097Z,10.1
2018-12-27T10:01:22.530Z,10.0
2018-12-27T10:02:23.946Z,10.0
2018-12-27T10:03:25.369Z,9.9
2018-12-27T10:04:26.768Z,10.0
2018-12-27T10:05:33.682Z,9.9
2018-12-27T10:06:29.699Z,10.0
2018-12-27T10:07:31.101Z,10.0
2018-12-27T10:08:32.514Z,10.1
2018-12-27T10:09:33.975Z,10.0
2018-12-27T10:10:35.375Z,10.1
2018-12-27T10:11:36.780Z,10.2
2018-12-27T10:12:38.220Z,10.5
2018-12-27T10:13:39.642Z,10.7
2018-12-27T10:14:41.035Z,10.9
2018-12-27T10:15:42.457Z,11.1
2018-12-27T10:16:43.827Z,11.2
2018-12-27T10:17:45.203Z,11.4
2018-12-27T10:18:46.777Z,11.3
2018-12-27T10:19:48.187Z,11.3
2018-12-27T10:20:49.621Z,11.3
2018-12-27T10:21:51.037Z,11.3
2018-12-27T10:22:52.491Z,11.3
2018-12-27T10:23:53.864Z,11.4
2018-12-27T10:24:55.255Z,11.4
2018-12-27T10:25:56.674Z,11.3
2018-12-27T10:26:58.093Z,11.4
2018-12-27T10:27:59.700Z,11.2
2018-12-27T10:29:01.165Z,11.1
2018-12-27T10:30:02.582Z,11.0
2018-12-27T10:31:04.063Z,10.9
2018-12-27T10:32:05.492Z,10.9
2018-12-27T10:33:06.894Z,10.7
2018-12-27T10:34:08.319Z,10.7
2018-12-27T10:35:09.713Z,10.6
2018-12-27T10:36:11.125Z,10.7
2018-12-27T10:37:12.611Z,10.4
2018-12-27T10:38:14.013Z,10.3
2018-12-27T10:39:15.539Z,10.4
2018-12-27T10:40:16.948Z,10.5
2018-12-27T10:41:18.489Z,10.5
2018-12-27T10:42:19.894Z,10.5
2018-12-27T10:43:21.309Z,10.5
2018-12-27T10:44:22.740Z,10.6
2018-12-27T10:45:24.141Z,10.7
2018-12-27T10:46:25.612Z,10.7
2018-12-27T10:47:27.020Z,10.8
2018-12-27T10:48:28.454Z,10.7
2018-12-27T10:49:29.886Z,10.7
2018-12-27T10:50:31.364Z,10.4
2018-12-27T10:51:32.878Z,10.5
2018-12-27T10:52:34.351Z,10.5
2018-12-27T10:53:35.837Z,10.6
2018-12-27T10:54:37.320Z,10.8
2018-12-27T10:55:38.861Z,10.9
2018-12-27T10:56:40.314Z,11.1
2018-12-27T10:57:41.783Z,11.3
2018-12-27T10:58:43.309Z,11.7
2018-12-27T10:59:45.224Z,11.7
2018-12-27T11:00:46.754Z,11.8
2018-12-27T11:01:48.224Z,11.8
2018-12-27T11:02:49.714Z,11.6
2018-12-27T11:03:51.198Z,11.6
2018-12-27T11:04:52.709Z,11.8
2018-12-27T11:05:54.180Z,11.9
2018-12-27T11:06:55.723Z,11.9
2018-12-27T11:07:57.259Z,12.2
2018-12-27T11:08:59.259Z,12.3
2018-12-27T11:10:00.713Z,12.0
2018-12-27T11:11:02.177Z,11.9
2018-12-27T11:12:03.801Z,11.8
2018-12-27T11:13:05.515Z,11.8
2018-12-27T11:14:06.964Z,11.9
2018-12-27T11:15:08.499Z,11.9
2018-12-27T11:16:09.972Z,11.7
2018-12-27T11:17:11.411Z,11.5
2018-12-27T11:18:12.920Z,11.4
2018-12-27T11:19:14.432Z,11.4
2018-12-27T11:20:17.338Z,11.3
2018-12-27T11:21:19.110Z,11.2
2018-12-27T11:22:20.621Z,11.0
2018-12-27T11:23:22.154Z,10.9
2018-12-27T11:24:23.659Z,10.8
2018-12-27T11:25:25.098Z,10.5
2018-12-27T11:26:26.623Z,10.4
2018-12-27T11:27:28.120Z,10.4
2018-12-27T11:28:29.639Z,10.2
2018-12-27T11:29:31.103Z,10.2
2018-12-27T11:30:32.749Z,10.2
2018-12-27T11:31:34.297Z,10.1
2018-12-27T11:32:35.781Z,10.0
2018-12-27T11:33:37.408Z,10.1
2018-12-27T11:34:38.889Z,9.9
2018-12-27T11:35:40.351Z,10.1
2018-12-27T11:36:41.849Z,9.9
2018-12-27T11:37:43.297Z,10.0
2018-12-27T11:38:44.856Z,10.0
2018-12-27T11:39:46.274Z,10.1
2018-12-27T11:40:47.721Z,10.2
2018-12-27T11:41:49.166Z,10.1
2018-12-27T11:42:50.680Z,10.2
2018-12-27T11:43:52.170Z,10.2
2018-12-27T11:44:53.594Z,10.2
2018-12-27T11:45:55.025Z,10.2
2018-12-27T11:46:56.512Z,10.2
2018-12-27T11:47:57.971Z,10.1
2018-12-27T11:48:59.454Z,10.2
2018-12-27T11:50:00.907Z,10.2
2018-12-27T11:51:02.373Z,10.2
2018-12-27T11:52:03.780Z,10.2
2018-12-27T11:53:05.295Z,10.1
2018-12-27T11:54:06.765Z,10.1
2018-12-27T11:55:08.245Z,9.8
2018-12-27T11:56:09.714Z,9.8
2018-12-27T11:57:11.071Z,9.9
2018-12-27T11:58:12.469Z,9.8
2018-12-27T11:59:13.892Z,9.9
2018-12-27T12:00:15.334Z,9.8
2018-12-27T12:01:16.819Z,9.9
2018-12-27T12:02:18.294Z,9.8
2018-12-27T12:03:19.724Z,9.8
2018-12-27T12:04:21.221Z,9.9
2018-12-27T12:05:22.668Z,10.0
2018-12-27T12:06:24.147Z,9.9
2018-12-27T12:07:25.634Z,9.9
2018-12-27T12:08:27.122Z,9.8
2018-12-27T12:09:28.553Z,9.8
2018-12-27T12:10:29.954Z,9.7
2018-12-27T12:11:31.458Z,9.7
2018-12-27T12:12:32.969Z,9.8
2018-12-27T12:13:34.369Z,9.9
2018-12-27T12:14:35.886Z,9.8
2018-12-27T12:15:37.375Z,9.8
2018-12-27T12:16:38.838Z,9.7
2018-12-27T12:17:40.340Z,9.8
2018-12-27T12:18:41.732Z,9.9
2018-12-27T12:19:43.132Z,9.9
2018-12-27T12:20:44.611Z,9.9
2018-12-27T12:21:46.068Z,10.0
2018-12-27T12:22:47.505Z,10.0
2018-12-27T12:23:48.988Z,10.0
2018-12-27T12:24:50.408Z,10.0
2018-12-27T12:25:52.031Z,10.0
2018-12-27T12:26:53.545Z,10.0
2018-12-27T12:27:54.999Z,10.1
2018-12-27T12:28:56.443Z,10.0
2018-12-27T12:29:57.978Z,10.1
2018-12-27T12:30:59.404Z,10.1
2018-12-27T12:32:00.870Z,10.1
2018-12-27T12:33:02.342Z,10.0
2018-12-27T12:34:03.842Z,10.1
2018-12-27T12:35:05.320Z,10.1
2018-12-27T12:36:10.563Z,10.0
2018-12-27T12:37:13.812Z,10.0
2018-12-27T12:38:09.638Z,10.0
2018-12-27T12:39:11.107Z,9.9
2018-12-27T12:40:12.594Z,9.8
2018-12-27T12:41:14.047Z,9.9
2018-12-27T12:42:15.608Z,9.8
2018-12-27T12:43:16.867Z,9.9
2018-12-27T12:44:18.301Z,9.9
2018-12-27T12:45:19.744Z,9.9
2018-12-27T12:46:21.218Z,10.0
2018-12-27T12:47:22.826Z,10.0
2018-12-27T12:48:24.276Z,10.0
2018-12-27T12:49:25.703Z,10.0
2018-12-27T12:50:27.277Z,10.0
2018-12-27T12:51:28.731Z,10.2
2018-12-27T12:52:30.238Z,10.2
2018-12-27T12:53:32.142Z,10.2
2018-12-27T12:54:33.225Z,10.2
2018-12-27T12:55:34.716Z,10.3
2018-12-27T12:56:36.153Z,10.3
2018-12-27T12:57:37.635Z,10.3
2018-12-27T12:58:39.113Z,10.3
2018-12-27T12:59:40.587Z,10.3
2018-12-27T13:00:42.129Z,10.3
2018-12-27T13:01:43.491Z,10.3
2018-12-27T13:02:44.987Z,10.4
2018-12-27T13:03:46.435Z,10.4
2018-12-27T13:04:47.900Z,10.4
2018-12-27T13:05:49.364Z,10.4
2018-12-27T13:06:50.818Z,10.4
2018-12-27T13:07:52.302Z,10.5
2018-12-27T13:08:53.741Z,10.5
2018-12-27T13:09:55.185Z,10.5
2018-12-27T13:10:56.608Z,10.5
2018-12-27T13:11:58.080Z,10.5
2018-12-27T13:12:59.538Z,10.5
2018-12-27T13:14:00.937Z,10.5
2018-12-27T13:15:02.364Z,10.7
2018-12-27T13:16:03.829Z,10.6
2018-12-27T13:17:05.236Z,10.5
2018-12-27T13:18:06.679Z,10.5
2018-12-27T13:19:08.138Z,10.5
2018-12-27T13:20:09.631Z,10.4
2018-12-27T13:21:11.085Z,10.4
2018-12-27T13:22:12.591Z,10.5
2018-12-27T13:23:14.133Z,10.5
2018-12-27T13:24:15.630Z,10.5
2018-12-27T13:25:17.117Z,10.6
2018-12-27T13:26:18.576Z,10.5
2018-12-27T13:27:20.018Z,10.5
2018-12-27T13:28:21.495Z,10.6
2018-12-27T13:29:22.950Z,10.4
2018-12-27T13:30:24.418Z,10.5
2018-12-27T13:31:25.863Z,10.5
2018-12-27T13:32:27.332Z,10.5
2018-12-27T13:33:28.755Z,10.5
2018-12-27T13:34:30.258Z,10.4
2018-12-27T13:35:31.678Z,10.5
2018-12-27T13:36:33.142Z,10.5
2018-12-27T13:37:34.536Z,10.4
2018-12-27T13:38:36.011Z,10.4
2018-12-27T13:39:37.442Z,10.4
2018-12-27T13:40:38.867Z,10.4
2018-12-27T13:41:40.316Z,10.3
2018-12-27T13:42:41.740Z,10.2
2018-12-27T13:43:43.191Z,10.2
2018-12-27T13:44:44.660Z,10.0
2018-12-27T13:45:46.061Z,9.9
2018-12-27T13:46:47.465Z,9.8
2018-12-27T13:47:48.871Z,9.8
2018-12-27T13:48:50.295Z,9.9
2018-12-27T13:49:51.689Z,9.8
2018-12-27T13:50:53.105Z,9.7
2018-12-27T13:51:54.536Z,9.7
2018-12-27T13:52:55.911Z,9.7
2018-12-27T13:53:57.302Z,9.6
2018-12-27T13:54:58.671Z,9.4
2018-12-27T13:56:00.060Z,9.4
2018-12-27T13:57:01.449Z,9.4
2018-12-27T13:58:02.843Z,9.5
2018-12-27T13:59:04.222Z,9.4